Time;durP1;ratioP1;P1;durP2;ratioP2;P2;SDS_P1;SDS_P2;PMS_P1;PMS_P2;Temp;Humidity;BMP_temperature;BMP_pressure;BME280_temperature;BME280_humidity;BME280_pressure;Samples;Min_cycle;Max_cycle;Signal;HPM_P1;HPM_P2
2022/07/07 00:01:48;;;;;;;;;;;;;;;;;;2209730;67;1146;-54
2022/07/07 00:04:21;;;;;;;;;;;;;;;;;;2210080;67;1252;-53
2022/07/07 00:06:54;;;;;;;;;;;;;;;;;;2209437;67;2006;-53
2022/07/07 00:09:29;;;;;;;;;;;;;;;;;;2209728;67;1181;-53
2022/07/07 00:12:03;;;;;;;;;;;;;;;;;;2209815;59;1414;-54
2022/07/07 00:14:39;;;;;;;;;;;;;;;;;;2210052;59;1131;-53
2022/07/07 00:17:12;;;;;;;;;;;;;;;;;;2209637;67;1258;-58
2022/07/07 00:19:45;;;;;;;;;;;;;;;;;;2209635;67;1251;-53
2022/07/07 00:22:18;;;;;;;;;;;;;;;;;;2209889;67;1146;-53
2022/07/07 00:24:51;;;;;;;;;;;;;;;;;;2209573;67;1088;-53
2022/07/07 00:27:24;;;;;;;;;;;;;;;;;;2209961;59;1980;-54
2022/07/07 00:30:00;;;;;;;;;;;;;;;;;;2209567;67;1166;-53
2022/07/07 00:32:33;;;;;;;;;;;;;;;;;;2209773;59;2396;-56
2022/07/07 00:35:07;;;;;;;;;;;;;;;;;;2209598;67;1087;-53
2022/07/07 00:37:40;;;;;;;;;;;;;;;;;;2210454;67;1250;-53
2022/07/07 00:40:14;;;;;;;;;;;;;;;;;;2209817;67;1171;-54
2022/07/07 00:42:47;;;;;;;;;;;;;;;;;;2210577;59;2021;-53
2022/07/07 00:45:23;;;;;;;;;;;;;;;;;;2210646;67;1232;-53
2022/07/07 00:47:56;;;;;;;;;;;;;;;;;;2210215;67;1921;-54
2022/07/07 00:50:29;;;;;;;;;;;;;;;;;;2210067;67;1161;-54
2022/07/07 00:53:02;;;;;;;;;;;;;;;;;;2210433;67;1234;-53
2022/07/07 00:55:35;;;;;;;;;;;;;;;;;;2210181;67;1306;-54
2022/07/07 00:58:08;;;;;;;;;;;;;;;;;;2210639;67;1254;-53
2022/07/07 01:00:45;;;;;;;;;;;;;;;;;;2210258;67;1249;-58
2022/07/07 01:03:18;;;;;;;;;;;;;;;;;;2210450;67;1202;-59
2022/07/07 01:05:51;;;;;;;;;;;;;;;;;;2210120;67;1197;-54
2022/07/07 01:08:25;;;;;;;;;;;;;;;;;;2210641;67;1937;-53
2022/07/07 01:10:58;;;;;;;;;;;;;;;;;;2210341;59;1299;-54
2022/07/07 01:13:31;;;;;;;;;;;;;;;;;;2209947;59;1370;-54
2022/07/07 01:16:07;;;;;;;;;;;;;;;;;;2210540;59;1216;-53
2022/07/07 01:18:41;;;;;;;;;;;;;;;;;;2210335;67;1078;-54
2022/07/07 01:21:16;;;;;;;;;;;;;;;;;;2210542;67;1164;-54
2022/07/07 01:23:51;;;;;;;;;;;;;;;;;;2210409;67;1100;-54
2022/07/07 01:26:25;;;;;;;;;;;;;;;;;;2210438;67;1928;-53
2022/07/07 01:28:59;;;;;;;;;;;;;;;;;;2210352;67;1255;-53
2022/07/07 01:31:32;;;;;;;;;;;;;;;;;;2210447;67;2068;-53
2022/07/07 01:34:05;;;;;;;;;;;;;;;;;;2210569;67;1175;-53
2022/07/07 01:36:38;;;;;;;;;;;;;;;;;;2210504;67;1246;-53
2022/07/07 01:39:14;;;;;;;;;;;;;;;;;;2210791;67;1213;-55
2022/07/07 01:41:47;;;;;;;;;;;;;;;;;;2210271;59;1859;-53
2022/07/07 01:44:21;;;;;;;;;;;;;;;;;;2209354;67;1116;-60
2022/07/07 01:46:54;;;;;;;;;;;;;;;;;;2210131;67;1940;-53
2022/07/07 01:49:27;;;;;;;;;;;;;;;;;;2210397;67;1164;-54
2022/07/07 01:52:01;;;;;;;;;;;;;;;;;;2209868;59;1003;-54
2022/07/07 01:54:38;;;;;;;;;;;;;;;;;;2210346;67;1259;-53
2022/07/07 01:57:11;;;;;;;;;;;;;;;;;;2210284;67;1258;-53
2022/07/07 01:59:45;;;;;;;;;;;;;;;;;;2210478;67;1095;-53
2022/07/07 02:02:18;;;;;;;;;;;;;;;;;;2210177;67;1175;-53
2022/07/07 02:04:51;;;;;;;;;;;;;;;;;;2210248;67;996;-54
2022/07/07 02:07:24;;;;;;;;;;;;;;;;;;2209831;67;1929;-53
2022/07/07 02:10:02;;;;;;;;;;;;;;;;;;2210144;67;1219;-53
2022/07/07 02:12:35;;;;;;;;;;;;;;;;;;2210517;59;1346;-53
2022/07/07 02:15:09;;;;;;;;;;;;;;;;;;2210186;67;1268;-53
2022/07/07 02:17:42;;;;;;;;;;;;;;;;;;2210339;59;1183;-53
2022/07/07 02:20:15;;;;;;;;;;;;;;;;;;2209959;67;1187;-53
2022/07/07 02:22:48;;;;;;;;;;;;;;;;;;2209765;67;1082;-53
2022/07/07 02:25:24;;;;;;;;;;;;;;;;;;2209746;59;1374;-54
2022/07/07 02:27:57;;;;;;;;;;;;;;;;;;2210537;59;1931;-53
2022/07/07 02:30:31;;;;;;;;;;;;;;;;;;2209533;59;2043;-56
2022/07/07 02:33:04;;;;;;;;;;;;;;;;;;2210240;67;1215;-54
2022/07/07 02:35:37;;;;;;;;;;;;;;;;;;2210150;67;1206;-53
2022/07/07 02:38:10;;;;;;;;;;;;;;;;;;2209593;67;1308;-53
2022/07/07 02:40:46;;;;;;;;;;;;;;;;;;2210073;67;2020;-53
2022/07/07 02:43:20;;;;;;;;;;;;;;;;;;2210199;67;1167;-53
2022/07/07 02:45:53;;;;;;;;;;;;;;;;;;2210268;67;1191;-53
2022/07/07 02:48:28;;;;;;;;;;;;;;;;;;2210064;67;1988;-53
2022/07/07 02:51:01;;;;;;;;;;;;;;;;;;2209791;67;1167;-53
2022/07/07 02:53:35;;;;;;;;;;;;;;;;;;2209851;59;1074;-53
2022/07/07 02:56:11;;;;;;;;;;;;;;;;;;2209945;67;1236;-57
2022/07/07 02:58:44;;;;;;;;;;;;;;;;;;2210029;67;1069;-53
2022/07/07 03:01:17;;;;;;;;;;;;;;;;;;2219617;67;1308;-53
2022/07/07 03:03:51;;;;;;;;;;;;;;;;;;2224053;59;1833;-60
2022/07/07 03:06:24;;;;;;;;;;;;;;;;;;2222874;59;1130;-59
2022/07/07 03:08:57;;;;;;;;;;;;;;;;;;2222214;59;1925;-61
2022/07/07 03:11:33;;;;;;;;;;;;;;;;;;2222357;59;1274;-54
2022/07/07 03:14:06;;;;;;;;;;;;;;;;;;2211267;67;1306;-53
2022/07/07 03:16:39;;;;;;;;;;;;;;;;;;2209995;67;1212;-53
2022/07/07 03:19:12;;;;;;;;;;;;;;;;;;2210010;67;1252;-53
2022/07/07 03:21:46;;;;;;;;;;;;;;;;;;2210252;59;1306;-53
2022/07/07 03:24:19;;;;;;;;;;;;;;;;;;2209974;67;1253;-53
2022/07/07 03:26:55;;;;;;;;;;;;;;;;;;2209665;59;1980;-57
2022/07/07 03:29:28;;;;;;;;;;;;;;;;;;2209983;67;1230;-54
2022/07/07 03:32:01;;;;;;;;;;;;;;;;;;2209545;59;2043;-54
2022/07/07 03:34:34;;;;;;;;;;;;;;;;;;2209718;67;1127;-53
2022/07/07 03:37:07;;;;;;;;;;;;;;;;;;2209986;59;1259;-53
2022/07/07 03:39:41;;;;;;;;;;;;;;;;;;2209574;67;1096;-53
2022/07/07 03:42:16;;;;;;;;;;;;;;;;;;2209942;67;1928;-53
2022/07/07 03:44:50;;;;;;;;;;;;;;;;;;2204970;67;1484;-54
2022/07/07 03:47:23;;;;;;;;;;;;;;;;;;2209639;67;1946;-53
2022/07/07 03:49:56;;;;;;;;;;;;;;;;;;2209772;67;1018;-56
2022/07/07 03:52:29;;;;;;;;;;;;;;;;;;2209589;67;1060;-53
2022/07/07 03:55:02;;;;;;;;;;;;;;;;;;2209845;67;1191;-53
2022/07/07 03:57:39;;;;;;;;;;;;;;;;;;2210027;67;1260;-53
2022/07/07 04:00:13;;;;;;;;;;;;;;;;;;2209745;67;1164;-53
2022/07/07 04:02:46;;;;;;;;;;;;;;;;;;2209460;59;1304;-52
2022/07/07 04:05:19;;;;;;;;;;;;;;;;;;2209839;67;1194;-53
2022/07/07 04:07:52;;;;;;;;;;;;;;;;;;2209593;67;1943;-53
2022/07/07 04:10:25;;;;;;;;;;;;;;;;;;2209982;67;1125;-55
2022/07/07 04:13:01;;;;;;;;;;;;;;;;;;2210577;59;1307;-55
2022/07/07 04:15:34;;;;;;;;;;;;;;;;;;2210684;67;1262;-53
2022/07/07 04:18:08;;;;;;;;;;;;;;;;;;2210373;67;1077;-53
2022/07/07 04:20:41;;;;;;;;;;;;;;;;;;2210603;67;1125;-53
2022/07/07 04:23:14;;;;;;;;;;;;;;;;;;2210646;67;1101;-53
2022/07/07 04:25:47;;;;;;;;;;;;;;;;;;2210857;67;1179;-53
2022/07/07 04:28:23;;;;;;;;;;;;;;;;;;2210824;59;1969;-53
2022/07/07 04:30:56;;;;;;;;;;;;;;;;;;2211609;59;1845;-53
2022/07/07 04:33:29;;;;;;;;;;;;;;;;;;2206956;67;1726;-54
2022/07/07 04:36:03;;;;;;;;;;;;;;;;;;2210804;67;1275;-53
2022/07/07 04:38:36;;;;;;;;;;;;;;;;;;2210389;67;1068;-55
2022/07/07 04:41:09;;;;;;;;;;;;;;;;;;2210877;59;1992;-54
2022/07/07 04:43:45;;;;;;;;;;;;;;;;;;2210883;67;1085;-53
2022/07/07 04:46:18;;;;;;;;;;;;;;;;;;2210572;67;1266;-62
2022/07/07 04:48:51;;;;;;;;;;;;;;;;;;2210612;67;1938;-53
2022/07/07 04:51:24;;;;;;;;;;;;;;;;;;2209915;60;1147;-52
2022/07/07 04:53:57;;;;;;;;;;;;;;;;;;2210657;67;1205;-53
2022/07/07 04:56:31;;;;;;;;;;;;;;;;;;2210687;67;1277;-55
2022/07/07 04:59:06;;;;;;;;;;;;;;;;;;2210700;67;1248;-52
2022/07/07 05:01:40;;;;;;;;;;;;;;;;;;2209701;67;1143;-53
2022/07/07 05:04:13;;;;;;;;;;;;;;;;;;2210193;67;1366;-53
2022/07/07 05:06:46;;;;;;;;;;;;;;;;;;2210785;67;1269;-56
2022/07/07 05:09:19;;;;;;;;;;;;;;;;;;2210392;67;1988;-53
2022/07/07 05:11:52;;;;;;;;;;;;;;;;;;2210701;59;1344;-54
2022/07/07 05:14:28;;;;;;;;;;;;;;;;;;2210619;67;1256;-54
2022/07/07 05:17:02;;;;;;;;;;;;;;;;;;2210268;67;1265;-53
2022/07/07 05:19:35;;;;;;;;;;;;;;;;;;2211306;67;1216;-53
2022/07/07 05:22:08;;;;;;;;;;;;;;;;;;2211927;67;1112;-53
2022/07/07 05:24:41;;;;;;;;;;;;;;;;;;2212265;67;1084;-53
2022/07/07 05:27:14;;;;;;;;;;;;;;;;;;2212859;59;1310;-54
2022/07/07 05:29:50;;;;;;;;;;;;;;;;;;2211984;67;1992;-53
2022/07/07 05:32:24;;;;;;;;;;;;;;;;;;2212486;59;1952;-53
2022/07/07 05:34:57;;;;;;;;;;;;;;;;;;2212072;67;1151;-53
2022/07/07 05:37:30;;;;;;;;;;;;;;;;;;2213420;67;1246;-53
2022/07/07 05:40:03;;;;;;;;;;;;;;;;;;2213845;67;1305;-53
2022/07/07 05:42:36;;;;;;;;;;;;;;;;;;2213196;67;2051;-55
2022/07/07 05:45:13;;;;;;;;;;;;;;;;;;2213958;67;1109;-53
2022/07/07 05:47:46;;;;;;;;;;;;;;;;;;2214278;67;1904;-53
2022/07/07 05:50:19;;;;;;;;;;;;;;;;;;2214010;67;1755;-53
2022/07/07 05:52:52;;;;;;;;;;;;;;;;;;2214366;67;1058;-53
2022/07/07 05:55:25;;;;;;;;;;;;;;;;;;2212529;67;1271;-53
2022/07/07 05:57:59;;;;;;;;;;;;;;;;;;2214483;67;1092;-53
2022/07/07 06:00:35;;;;;;;;;;;;;;;;;;2214169;67;1185;-53
2022/07/07 06:03:08;;;;;;;;;;;;;;;;;;2213505;67;1249;-53
2022/07/07 06:05:41;;;;;;;;;;;;;;;;;;2213926;67;1207;-53
2022/07/07 06:08:15;;;;;;;;;;;;;;;;;;2214332;67;1908;-54
2022/07/07 06:10:48;;;;;;;;;;;;;;;;;;2214385;59;1385;-53
2022/07/07 06:13:21;;;;;;;;;;;;;;;;;;2214700;59;1679;-53
2022/07/07 06:15:57;;;;;;;;;;;;;;;;;;2214296;67;1276;-54
2022/07/07 06:18:30;;;;;;;;;;;;;;;;;;2214624;67;1252;-54
2022/07/07 06:21:03;;;;;;;;;;;;;;;;;;2214621;67;1229;-54
2022/07/07 09:47:15;;;;;;;;;;;;;;;;;;2208303;59;1600;-54
2022/07/07 09:50:00;;;;;;;;;;;;;;;;;;2210057;67;1979;-54
2022/07/07 09:52:35;;;;;;;;;;;;;;;;;;2209224;67;1008;-54
2022/07/07 09:55:11;;;;;;;;;;;;;;;;;;2209922;67;1207;-54
2022/07/07 09:57:45;;;;;;;;;;;;;;;;;;2209588;67;1288;-54
2022/07/07 10:00:18;;;;;;;;;;;;;;;;;;2209949;67;1270;-59
2022/07/07 10:02:54;;;;;;;;;;;;;;;;;;2210200;67;1127;-56
2022/07/07 10:05:28;;;;;;;;;;;;;;;;;;2209146;59;1430;-56
2022/07/07 10:08:02;;;;;;;;;;;;;;;;;;2209769;59;1376;-54
2022/07/07 10:10:35;;;;;;;;;;;;;;;;;;2209281;59;1931;-53
2022/07/07 10:13:09;;;;;;;;;;;;;;;;;;2210244;59;1367;-54
2022/07/07 10:15:42;;;;;;;;;;;;;;;;;;2209752;59;1325;-55
2022/07/07 10:18:18;;;;;;;;;;;;;;;;;;2209953;67;1246;-54
2022/07/07 10:20:52;;;;;;;;;;;;;;;;;;2209416;67;1004;-56
2022/07/07 10:23:25;;;;;;;;;;;;;;;;;;2209948;59;1093;-54
2022/07/07 10:26:02;;;;;;;;;;;;;;;;;;2210221;59;1291;-57
2022/07/07 10:28:56;;;;;;;;;;;;;;;;;;2209718;59;1976;-54
2022/07/07 10:31:30;;;;;;;;;;;;;;;;;;2209857;59;1956;-54
2022/07/07 10:34:07;;;;;;;;;;;;;;;;;;2209995;67;1208;-57
2022/07/07 10:37:10;;;;;;;;;;;;;;;;;;2209060;67;1223;-54
2022/07/07 10:39:45;;;;;;;;;;;;;;;;;;2194277;67;1165;-55
2022/07/07 10:42:39;;;;;;;;;;;;;;;;;;2207718;59;2145;-55
2022/07/07 10:45:14;;;;;;;;;;;;;;;;;;2208900;67;1123;-54
2022/07/07 10:47:47;;;;;;;;;;;;;;;;;;2209745;67;1257;-53
2022/07/07 10:50:28;;;;;;;;;;;;;;;;;;2209984;67;1921;-54
2022/07/07 10:53:01;;;;;;;;;;;;;;;;;;2209637;67;1036;-54
2022/07/07 10:56:02;;;;;;;;;;;;;;;;;;2209912;67;1271;-57
2022/07/07 10:58:53;;;;;;;;;;;;;;;;;;2201337;67;2587;-57
2022/07/07 11:01:31;;;;;;;;;;;;;;;;;;2209870;67;1266;-54
2022/07/07 11:04:05;;;;;;;;;;;;;;;;;;2209762;59;1394;-55
2022/07/07 11:06:53;;;;;;;;;;;;;;;;;;2209711;67;1236;-55
2022/07/07 11:09:49;;;;;;;;;;;;;;;;;;2209509;67;2506;-54
2022/07/07 11:12:40;;;;;;;;;;;;;;;;;;2209383;59;1316;-55
2022/07/07 11:15:32;;;;;;;;;;;;;;;;;;2209649;67;1291;-57
2022/07/07 11:18:12;;;;;;;;;;;;;;;;;;2209489;67;1205;-54
2022/07/07 11:21:06;;;;;;;;;;;;;;;;;;2209573;67;1271;-54
2022/07/07 11:23:50;;;;;;;;;;;;;;;;;;2208622;59;2161;-54
2022/07/07 11:26:27;;;;;;;;;;;;;;;;;;2209697;67;1880;-54
2022/07/07 11:29:01;;;;;;;;;;;;;;;;;;2210263;60;1987;-56
2022/07/07 11:31:34;;;;;;;;;;;;;;;;;;2209447;59;2022;-56
2022/07/07 11:34:07;;;;;;;;;;;;;;;;;;2209780;67;1159;-55
2022/07/07 11:36:40;;;;;;;;;;;;;;;;;;2209908;67;1281;-54
2022/07/07 11:39:14;;;;;;;;;;;;;;;;;;2210494;67;1262;-56
2022/07/07 11:41:51;;;;;;;;;;;;;;;;;;2209849;59;1937;-56
2022/07/07 11:44:25;;;;;;;;;;;;;;;;;;2209347;67;1210;-54
2022/07/07 11:46:58;;;;;;;;;;;;;;;;;;2209983;67;1258;-54
2022/07/07 11:49:32;;;;;;;;;;;;;;;;;;2209198;67;1927;-54
2022/07/07 11:52:05;;;;;;;;;;;;;;;;;;2209832;67;1185;-54
2022/07/07 11:54:44;;;;;;;;;;;;;;;;;;2209822;67;1200;-55
2022/07/07 11:57:33;;;;;;;;;;;;;;;;;;2210120;67;1274;-56
2022/07/07 12:00:10;;;;;;;;;;;;;;;;;;2210060;67;1152;-60
2022/07/07 12:02:44;;;;;;;;;;;;;;;;;;2209881;67;1228;-54
2022/07/07 12:05:18;;;;;;;;;;;;;;;;;;2209931;59;1707;-54
2022/07/07 12:07:54;;;;;;;;;;;;;;;;;;2209864;67;1278;-54
2022/07/07 12:10:30;;;;;;;;;;;;;;;;;;2209500;59;1931;-54
2022/07/07 12:13:07;;;;;;;;;;;;;;;;;;2210428;59;1281;-57
2022/07/07 12:15:41;;;;;;;;;;;;;;;;;;2209859;67;1246;-55
2022/07/07 12:18:14;;;;;;;;;;;;;;;;;;2209705;67;1250;-56
2022/07/07 12:20:57;;;;;;;;;;;;;;;;;;2209903;67;1216;-59
2022/07/07 12:23:30;;;;;;;;;;;;;;;;;;2210123;67;1256;-54
2022/07/07 12:26:10;;;;;;;;;;;;;;;;;;2210201;67;1293;-54
2022/07/07 12:28:46;;;;;;;;;;;;;;;;;;2209884;59;1331;-54
2022/07/07 12:31:20;;;;;;;;;;;;;;;;;;2209892;59;2086;-54
2022/07/07 12:33:53;;;;;;;;;;;;;;;;;;2210752;67;1037;-54
2022/07/07 12:36:27;;;;;;;;;;;;;;;;;;2210445;67;1279;-55
2022/07/07 12:39:03;;;;;;;;;;;;;;;;;;2210955;67;1105;-55
2022/07/07 12:41:37;;;;;;;;;;;;;;;;;;2210215;59;1899;-54
2022/07/07 12:44:18;;;;;;;;;;;;;;;;;;2208875;67;1283;-54
2022/07/07 12:46:52;;;;;;;;;;;;;;;;;;2210856;67;1217;-56
2022/07/07 12:49:25;;;;;;;;;;;;;;;;;;2210522;67;1919;-59
2022/07/07 12:51:58;;;;;;;;;;;;;;;;;;2210822;67;1260;-54
2022/07/07 12:54:32;;;;;;;;;;;;;;;;;;2210641;67;1246;-54
2022/07/07 12:57:06;;;;;;;;;;;;;;;;;;2209925;67;1234;-55
2022/07/07 12:59:44;;;;;;;;;;;;;;;;;;2210674;67;1060;-55
2022/07/07 13:02:17;;;;;;;;;;;;;;;;;;2210514;67;1124;-54
2022/07/07 13:04:50;;;;;;;;;;;;;;;;;;2210605;59;1488;-54
2022/07/07 13:07:24;;;;;;;;;;;;;;;;;;2210535;67;1278;-54
2022/07/07 13:09:57;;;;;;;;;;;;;;;;;;2210273;67;1983;-54
2022/07/07 13:12:30;;;;;;;;;;;;;;;;;;2210406;59;1429;-57
2022/07/07 13:15:07;;;;;;;;;;;;;;;;;;2210599;67;1125;-54
2022/07/07 13:17:40;;;;;;;;;;;;;;;;;;2209883;67;1229;-54
2022/07/07 13:20:14;;;;;;;;;;;;;;;;;;2210187;67;1247;-54
2022/07/07 13:22:47;;;;;;;;;;;;;;;;;;2210550;67;1060;-54
2022/07/07 13:25:20;;;;;;;;;;;;;;;;;;2210507;59;1305;-54
2022/07/07 13:27:54;;;;;;;;;;;;;;;;;;2210434;59;1232;-54
2022/07/07 13:30:29;;;;;;;;;;;;;;;;;;2209788;59;2266;-55
2022/07/07 13:33:03;;;;;;;;;;;;;;;;;;2210566;67;1193;-54
2022/07/07 13:35:36;;;;;;;;;;;;;;;;;;2210675;67;1304;-54
2022/07/07 13:38:10;;;;;;;;;;;;;;;;;;2210275;67;1129;-55
2022/07/07 13:40:43;;;;;;;;;;;;;;;;;;2210513;59;1972;-58
2022/07/07 13:43:17;;;;;;;;;;;;;;;;;;2210188;67;1877;-54
2022/07/07 13:45:53;;;;;;;;;;;;;;;;;;2210218;67;1184;-55
2022/07/07 13:48:28;;;;;;;;;;;;;;;;;;2210225;67;1280;-54
2022/07/07 13:51:01;;;;;;;;;;;;;;;;;;2210444;67;1932;-55
2022/07/07 13:53:34;;;;;;;;;;;;;;;;;;2210424;67;1151;-54
2022/07/07 13:56:07;;;;;;;;;;;;;;;;;;2210606;67;1302;-54
2022/07/07 13:58:41;;;;;;;;;;;;;;;;;;2209599;67;1270;-54
2022/07/07 14:01:16;;;;;;;;;;;;;;;;;;2209935;67;1183;-56
2022/07/07 14:03:50;;;;;;;;;;;;;;;;;;2209941;67;1084;-54
2022/07/07 14:06:23;;;;;;;;;;;;;;;;;;2210197;67;1289;-55
2022/07/07 14:08:56;;;;;;;;;;;;;;;;;;2209346;67;1139;-59
2022/07/07 14:11:29;;;;;;;;;;;;;;;;;;2210275;59;1917;-55
2022/07/07 14:14:02;;;;;;;;;;;;;;;;;;2210393;67;1084;-58
2022/07/07 14:16:38;;;;;;;;;;;;;;;;;;2210021;67;1242;-55
2022/07/07 14:19:13;;;;;;;;;;;;;;;;;;2209906;67;1154;-55
2022/07/07 14:21:46;;;;;;;;;;;;;;;;;;2210866;67;1199;-56
2022/07/07 14:24:20;;;;;;;;;;;;;;;;;;2210370;67;1246;-54
2022/07/07 14:26:53;;;;;;;;;;;;;;;;;;2210028;59;1174;-54
2022/07/07 14:29:26;;;;;;;;;;;;;;;;;;2210077;67;1242;-56
2022/07/07 14:32:02;;;;;;;;;;;;;;;;;;2209644;59;2109;-54
2022/07/07 14:34:35;;;;;;;;;;;;;;;;;;2210137;67;1060;-54
2022/07/07 14:37:09;;;;;;;;;;;;;;;;;;2210436;59;1194;-54
2022/07/07 14:39:42;;;;;;;;;;;;;;;;;;2209919;67;1246;-54
2022/07/07 14:42:15;;;;;;;;;;;;;;;;;;2209578;59;1976;-54
2022/07/07 14:44:48;;;;;;;;;;;;;;;;;;2210169;67;1079;-56
2022/07/07 14:47:24;;;;;;;;;;;;;;;;;;2209879;67;1263;-56
2022/07/07 14:49:57;;;;;;;;;;;;;;;;;;2210030;67;1092;-54
2022/07/07 14:52:30;;;;;;;;;;;;;;;;;;2209009;67;1934;-54
2022/07/07 14:55:04;;;;;;;;;;;;;;;;;;2210079;67;1239;-54
2022/07/07 14:57:37;;;;;;;;;;;;;;;;;;2210184;67;1248;-54
2022/07/07 15:00:10;;;;;;;;;;;;;;;;;;2210004;67;1278;-60
2022/07/07 15:02:46;;;;;;;;;;;;;;;;;;2209738;67;1132;-54
2022/07/07 15:05:19;;;;;;;;;;;;;;;;;;2210129;67;1235;-56
2022/07/07 15:07:52;;;;;;;;;;;;;;;;;;2210096;67;1266;-59
2022/07/07 15:10:25;;;;;;;;;;;;;;;;;;2209765;67;1933;-54
2022/07/07 15:12:59;;;;;;;;;;;;;;;;;;2210153;59;1243;-56
2022/07/07 15:15:32;;;;;;;;;;;;;;;;;;2210089;67;1237;-55
2022/07/07 15:18:08;;;;;;;;;;;;;;;;;;2210438;59;1087;-55
2022/07/07 15:20:41;;;;;;;;;;;;;;;;;;2206444;67;1516;-54
2022/07/07 15:23:16;;;;;;;;;;;;;;;;;;2209925;67;1137;-55
2022/07/07 15:25:49;;;;;;;;;;;;;;;;;;2209792;59;1282;-55
2022/07/07 15:28:23;;;;;;;;;;;;;;;;;;2210156;59;1176;-54
2022/07/07 15:30:58;;;;;;;;;;;;;;;;;;2209497;67;2106;-56
2022/07/07 15:33:35;;;;;;;;;;;;;;;;;;2210249;67;1273;-55
2022/07/07 15:36:09;;;;;;;;;;;;;;;;;;2209871;67;1228;-63
2022/07/07 15:38:42;;;;;;;;;;;;;;;;;;2209606;67;1085;-55
2022/07/07 15:41:16;;;;;;;;;;;;;;;;;;2210485;59;2048;-56
2022/07/07 15:43:49;;;;;;;;;;;;;;;;;;2210146;67;978;-56
2022/07/07 15:46:23;;;;;;;;;;;;;;;;;;2210026;67;1250;-54
2022/07/07 15:48:59;;;;;;;;;;;;;;;;;;2209773;67;1080;-56
2022/07/07 15:51:32;;;;;;;;;;;;;;;;;;2210041;67;1929;-56
2022/07/07 15:54:05;;;;;;;;;;;;;;;;;;2209979;59;1191;-54
2022/07/07 15:56:38;;;;;;;;;;;;;;;;;;2210085;67;1239;-54
2022/07/07 15:59:11;;;;;;;;;;;;;;;;;;2209831;67;1266;-56
2022/07/07 16:01:45;;;;;;;;;;;;;;;;;;2209997;67;1132;-54
2022/07/07 16:04:39;;;;;;;;;;;;;;;;;;2209094;67;1167;-54
2022/07/07 16:07:13;;;;;;;;;;;;;;;;;;2209579;67;1188;-54
2022/07/07 16:09:47;;;;;;;;;;;;;;;;;;2210172;67;1072;-54
2022/07/07 16:12:20;;;;;;;;;;;;;;;;;;2209687;59;1983;-59
2022/07/07 16:14:53;;;;;;;;;;;;;;;;;;2210106;67;1093;-56
2022/07/07 16:17:27;;;;;;;;;;;;;;;;;;2209907;67;1229;-56
2022/07/07 16:20:02;;;;;;;;;;;;;;;;;;2209680;67;1094;-55
2022/07/07 16:22:36;;;;;;;;;;;;;;;;;;2209912;67;1111;-54
2022/07/07 16:25:10;;;;;;;;;;;;;;;;;;2209800;67;1183;-56
2022/07/07 16:27:43;;;;;;;;;;;;;;;;;;2209787;59;1211;-54
2022/07/07 16:30:18;;;;;;;;;;;;;;;;;;2209132;59;1911;-53
2022/07/07 16:32:51;;;;;;;;;;;;;;;;;;2209478;67;2022;-54
2022/07/07 16:35:27;;;;;;;;;;;;;;;;;;2209915;67;1182;-54
2022/07/07 16:38:01;;;;;;;;;;;;;;;;;;2209375;67;1089;-54
2022/07/07 16:40:34;;;;;;;;;;;;;;;;;;2210193;59;1862;-53
2022/07/07 16:43:07;;;;;;;;;;;;;;;;;;2209560;67;1121;-54
2022/07/07 16:45:40;;;;;;;;;;;;;;;;;;2209520;67;1268;-54
2022/07/07 16:48:15;;;;;;;;;;;;;;;;;;2210368;67;1133;-54
2022/07/07 16:50:51;;;;;;;;;;;;;;;;;;2210036;67;1940;-56
2022/07/07 16:53:24;;;;;;;;;;;;;;;;;;2209883;67;1151;-54
2022/07/07 16:55:57;;;;;;;;;;;;;;;;;;2209986;67;1207;-54
2022/07/07 16:58:31;;;;;;;;;;;;;;;;;;2209640;67;1206;-54
2022/07/07 17:01:04;;;;;;;;;;;;;;;;;;2209677;67;1203;-53
2022/07/07 17:03:37;;;;;;;;;;;;;;;;;;2209905;67;1161;-57
2022/07/07 17:06:13;;;;;;;;;;;;;;;;;;2209333;67;1287;-54
2022/07/07 17:08:46;;;;;;;;;;;;;;;;;;2209480;67;1076;-60
2022/07/07 17:11:19;;;;;;;;;;;;;;;;;;2209623;59;1987;-55
2022/07/07 17:13:53;;;;;;;;;;;;;;;;;;2210045;59;1496;-54
2022/07/07 17:16:27;;;;;;;;;;;;;;;;;;2209366;67;1196;-56
2022/07/07 17:19:01;;;;;;;;;;;;;;;;;;2210406;59;1158;-56
2022/07/07 17:21:37;;;;;;;;;;;;;;;;;;2210376;67;1214;-54
2022/07/07 17:24:10;;;;;;;;;;;;;;;;;;2210034;59;2134;-54
2022/07/07 17:26:45;;;;;;;;;;;;;;;;;;2210449;59;1335;-54
2022/07/07 17:29:18;;;;;;;;;;;;;;;;;;2210204;67;1367;-55
2022/07/07 17:31:51;;;;;;;;;;;;;;;;;;2209558;59;1999;-53
2022/07/07 17:34:25;;;;;;;;;;;;;;;;;;2210288;67;1214;-55
2022/07/07 17:37:01;;;;;;;;;;;;;;;;;;2210250;67;1196;-54
2022/07/07 17:39:34;;;;;;;;;;;;;;;;;;2209729;67;1202;-54
2022/07/07 17:42:07;;;;;;;;;;;;;;;;;;2208873;59;2060;-54
2022/07/07 17:44:40;;;;;;;;;;;;;;;;;;2209656;67;1225;-53
2022/07/07 17:47:13;;;;;;;;;;;;;;;;;;2210433;67;1274;-53
2022/07/07 17:49:46;;;;;;;;;;;;;;;;;;2210298;67;1222;-56
2022/07/07 17:52:22;;;;;;;;;;;;;;;;;;2210168;67;1936;-54
2022/07/07 17:54:56;;;;;;;;;;;;;;;;;;2210403;67;1025;-53
2022/07/07 17:57:29;;;;;;;;;;;;;;;;;;2210145;67;1276;-53
2022/07/07 18:00:02;;;;;;;;;;;;;;;;;;2210560;67;1160;-59
2022/07/07 18:02:35;;;;;;;;;;;;;;;;;;2210174;67;1240;-55
2022/07/07 18:05:08;;;;;;;;;;;;;;;;;;2209898;67;1213;-54
2022/07/07 18:07:44;;;;;;;;;;;;;;;;;;2210022;67;1229;-55
2022/07/07 18:10:17;;;;;;;;;;;;;;;;;;2210353;67;1234;-54
2022/07/07 18:12:50;;;;;;;;;;;;;;;;;;2210374;59;1927;-54
2022/07/07 18:15:24;;;;;;;;;;;;;;;;;;2210091;59;1269;-54
2022/07/07 18:17:57;;;;;;;;;;;;;;;;;;2210050;67;1131;-55
2022/07/07 18:20:30;;;;;;;;;;;;;;;;;;2210398;67;1274;-54
2022/07/07 18:23:07;;;;;;;;;;;;;;;;;;2210563;67;1227;-53
2022/07/07 18:25:40;;;;;;;;;;;;;;;;;;2210381;59;1285;-53
2022/07/07 18:28:13;;;;;;;;;;;;;;;;;;2210412;59;1186;-55
2022/07/07 18:30:46;;;;;;;;;;;;;;;;;;2210224;59;2034;-54
2022/07/07 18:33:20;;;;;;;;;;;;;;;;;;2210471;67;2003;-55
2022/07/07 18:35:54;;;;;;;;;;;;;;;;;;2210553;67;1219;-55
2022/07/07 18:38:29;;;;;;;;;;;;;;;;;;2210293;67;1326;-54
2022/07/07 18:41:03;;;;;;;;;;;;;;;;;;2210020;59;1909;-55
2022/07/07 18:43:36;;;;;;;;;;;;;;;;;;2207787;67;1092;-55
2022/07/07 18:46:09;;;;;;;;;;;;;;;;;;2209705;67;1275;-54
2022/07/07 18:48:42;;;;;;;;;;;;;;;;;;2210100;67;1041;-54
2022/07/07 18:54:08;;;;;;;;;;;;;;;;;;2210544;67;1157;-54
2022/07/07 18:56:41;;;;;;;;;;;;;;;;;;2210099;67;1306;-53
2022/07/07 18:59:15;;;;;;;;;;;;;;;;;;2210464;67;1183;-54
2022/07/07 19:01:50;;;;;;;;;;;;;;;;;;2210189;67;1048;-54
2022/07/07 19:04:23;;;;;;;;;;;;;;;;;;2210286;59;1238;-59
2022/07/07 19:06:57;;;;;;;;;;;;;;;;;;2209896;67;1233;-53
2022/07/07 19:09:34;;;;;;;;;;;;;;;;;;2210040;67;1414;-55
2022/07/07 19:12:07;;;;;;;;;;;;;;;;;;2209606;59;1948;-57
2022/07/07 19:14:40;;;;;;;;;;;;;;;;;;2209877;67;1134;-54
2022/07/07 19:17:13;;;;;;;;;;;;;;;;;;2210129;67;1313;-53
2022/07/07 19:19:47;;;;;;;;;;;;;;;;;;2209982;67;1103;-53
2022/07/07 19:22:20;;;;;;;;;;;;;;;;;;2210273;67;1166;-53
2022/07/07 19:24:56;;;;;;;;;;;;;;;;;;2210206;67;1134;-53
2022/07/07 19:27:29;;;;;;;;;;;;;;;;;;2210196;67;1339;-53
2022/07/07 19:30:02;;;;;;;;;;;;;;;;;;2209321;67;1088;-55
2022/07/07 19:32:36;;;;;;;;;;;;;;;;;;2210183;59;2270;-53
2022/07/07 19:35:11;;;;;;;;;;;;;;;;;;2210212;67;1251;-55
2022/07/07 19:37:44;;;;;;;;;;;;;;;;;;2209952;67;1182;-53
2022/07/07 19:40:20;;;;;;;;;;;;;;;;;;2209642;59;1222;-53
2022/07/07 19:42:54;;;;;;;;;;;;;;;;;;2209471;59;2280;-53
2022/07/07 19:45:27;;;;;;;;;;;;;;;;;;2209889;67;1246;-53
2022/07/07 19:48:00;;;;;;;;;;;;;;;;;;2209520;67;1060;-53
2022/07/07 19:50:33;;;;;;;;;;;;;;;;;;2209991;67;1142;-53
2022/07/07 19:53:06;;;;;;;;;;;;;;;;;;2210217;67;1944;-53
2022/07/07 19:55:42;;;;;;;;;;;;;;;;;;2210264;67;1211;-53
2022/07/07 19:58:16;;;;;;;;;;;;;;;;;;2209697;67;1206;-54
2022/07/07 20:00:49;;;;;;;;;;;;;;;;;;2209878;67;1095;-54
2022/07/07 20:03:23;;;;;;;;;;;;;;;;;;2210174;59;1275;-54
2022/07/07 20:05:56;;;;;;;;;;;;;;;;;;2209885;67;1278;-53
2022/07/07 20:08:29;;;;;;;;;;;;;;;;;;2209906;67;1080;-54
2022/07/07 20:11:05;;;;;;;;;;;;;;;;;;2209526;59;1513;-53
2022/07/07 20:13:38;;;;;;;;;;;;;;;;;;2209972;67;1995;-53
2022/07/07 20:16:13;;;;;;;;;;;;;;;;;;2210090;67;1274;-54
2022/07/07 20:18:47;;;;;;;;;;;;;;;;;;2206280;67;1092;-53
2022/07/07 20:21:20;;;;;;;;;;;;;;;;;;2209705;67;1252;-53
2022/07/07 20:23:54;;;;;;;;;;;;;;;;;;2209871;67;1135;-53
2022/07/07 20:26:30;;;;;;;;;;;;;;;;;;2209399;67;1337;-55
2022/07/07 20:29:03;;;;;;;;;;;;;;;;;;2209258;67;1135;-55
2022/07/07 20:31:38;;;;;;;;;;;;;;;;;;2209700;59;2131;-56
2022/07/07 20:34:11;;;;;;;;;;;;;;;;;;2209517;67;1949;-54
2022/07/07 20:36:44;;;;;;;;;;;;;;;;;;2209884;67;1219;-53
2022/07/07 20:39:17;;;;;;;;;;;;;;;;;;2209786;67;1145;-54
2022/07/07 20:41:53;;;;;;;;;;;;;;;;;;2209082;59;2091;-53
2022/07/07 20:44:26;;;;;;;;;;;;;;;;;;2208647;67;1156;-53
2022/07/07 20:47:00;;;;;;;;;;;;;;;;;;2208713;67;1212;-53
2022/07/07 20:49:33;;;;;;;;;;;;;;;;;;2209513;67;1542;-54
2022/07/07 20:52:06;;;;;;;;;;;;;;;;;;2209419;59;1284;-53
2022/07/07 20:54:39;;;;;;;;;;;;;;;;;;2209588;67;1933;-54
2022/07/07 20:57:15;;;;;;;;;;;;;;;;;;2209962;67;1255;-54
2022/07/07 20:59:49;;;;;;;;;;;;;;;;;;2210035;67;1109;-53
2022/07/07 21:02:24;;;;;;;;;;;;;;;;;;2210071;67;1176;-53
2022/07/07 21:04:57;;;;;;;;;;;;;;;;;;2210109;67;1166;-54
2022/07/07 21:07:30;;;;;;;;;;;;;;;;;;2209745;67;1242;-53
2022/07/07 21:10:03;;;;;;;;;;;;;;;;;;2210015;67;1119;-53
2022/07/07 21:12:39;;;;;;;;;;;;;;;;;;2210060;59;1933;-53
2022/07/07 21:15:13;;;;;;;;;;;;;;;;;;2209859;67;1207;-54
2022/07/07 21:17:46;;;;;;;;;;;;;;;;;;2210058;67;1227;-54
2022/07/07 21:20:19;;;;;;;;;;;;;;;;;;2209855;67;1202;-55